Time;durP1;ratioP1;P1;durP2;ratioP2;P2;SDS_P1;SDS_P2;PMS_P1;PMS_P2;Temp;Humidity;BMP_temperature;BMP_pressure;BME280_temperature;BME280_humidity;BME280_pressure;Samples;Min_cycle;Max_cycle;Signal;HPM_P1;HPM_P2
2022/10/03 00:01:47;;;;;;;5.17;1.00;;;11.60;99.90;;;;;;4993929;28;20047;-66
2022/10/03 00:04:18;;;;;;;5.63;0.80;;;11.70;99.90;;;;;;4993602;28;20053;-66
2022/10/03 00:07:06;;;;;;;5.78;0.90;;;11.80;99.90;;;;;;4993550;28;20050;-66
2022/10/03 00:10:16;;;;;;;8.55;1.45;;;11.80;99.90;;;;;;4993591;28;20053;-66
2022/10/03 00:13:04;;;;;;;6.13;0.80;;;11.70;99.90;;;;;;4947372;28;20415;-66
2022/10/03 00:15:48;;;;;;;5.97;1.02;;;11.80;99.90;;;;;;4993159;28;20054;-65
2022/10/03 00:18:36;;;;;;;6.00;1.10;;;11.70;99.90;;;;;;4993688;28;20081;-66
2022/10/03 00:21:13;;;;;;;7.05;0.90;;;11.80;99.90;;;;;;4993634;28;20050;-66
2022/10/03 00:23:50;;;;;;;4.28;0.73;;;11.80;99.90;;;;;;4993207;28;20053;-66
2022/10/03 00:26:29;;;;;;;5.40;0.90;;;11.90;99.90;;;;;;4994097;28;20046;-66
2022/10/03 00:29:06;;;;;;;10.45;1.20;;;11.90;99.90;;;;;;4997247;28;20101;-66
2022/10/03 00:31:41;;;;;;;6.65;1.20;;;12.00;99.90;;;;;;4997090;28;20046;-66
2022/10/03 00:34:35;;;;;;;6.75;1.17;;;12.00;99.90;;;;;;4996628;28;20125;-66
2022/10/03 00:37:22;;;;;;;11.88;1.27;;;11.90;99.90;;;;;;4996927;28;20065;-66
2022/10/03 00:40:10;;;;;;;8.77;0.82;;;12.00;99.90;;;;;;4996843;28;20051;-66
2022/10/03 00:42:51;;;;;;;6.85;0.80;;;12.00;99.90;;;;;;4996641;28;20112;-66
2022/10/03 00:45:25;;;;;;;9.98;1.52;;;12.10;99.90;;;;;;4997206;28;20046;-69
2022/10/03 00:48:38;;;;;;;10.57;1.10;;;12.00;99.90;;;;;;4996726;28;20065;-66
2022/10/03 00:51:10;;;;;;;5.07;0.80;;;11.90;99.90;;;;;;4986731;28;20061;-66
2022/10/03 00:54:00;;;;;;;7.75;1.00;;;11.90;99.90;;;;;;4996720;28;20054;-66
2022/10/03 00:56:26;;;;;;;10.23;3.05;;;11.80;99.90;;;;;;4995644;28;20062;-65
2022/10/03 00:59:20;;;;;;;6.65;1.13;;;11.80;99.90;;;;;;4995154;28;20165;-66
2022/10/03 01:01:47;;;;;;;10.50;0.93;;;11.90;99.90;;;;;;4996603;28;20113;-66
2022/10/03 01:04:22;;;;;;;8.45;1.30;;;11.80;99.90;;;;;;4979320;28;20128;-66
2022/10/03 01:07:19;;;;;;;7.93;1.38;;;11.90;99.90;;;;;;4996578;28;20042;-66
2022/10/03 01:09:53;;;;;;;6.82;1.10;;;11.80;99.90;;;;;;4996350;28;20044;-66
2022/10/03 01:12:31;;;;;;;5.20;0.70;;;11.80;99.90;;;;;;4996388;28;20195;-66
2022/10/03 01:15:06;;;;;;;5.68;0.82;;;11.80;99.90;;;;;;4996399;28;20062;-66
2022/10/03 01:17:32;;;;;;;5.18;0.75;;;12.20;99.90;;;;;;4995509;28;20442;-66
2022/10/03 01:20:19;;;;;;;7.03;0.70;;;11.80;99.90;;;;;;4995880;28;20054;-66
2022/10/03 01:23:09;;;;;;;5.85;0.70;;;11.90;99.90;;;;;;4996151;28;20100;-66
2022/10/03 01:25:55;;;;;;;5.10;1.08;;;11.90;99.90;;;;;;4994999;28;20137;-66
2022/10/03 01:31:39;;;;;;;5.07;0.70;;;12.00;99.90;;;;;;4995980;28;20054;-66
2022/10/03 01:34:11;;;;;;;8.38;0.70;;;12.00;99.90;;;;;;4995855;28;20061;-65
2022/10/03 01:36:45;;;;;;;4.20;1.00;;;12.00;99.90;;;;;;4995373;28;20046;-66
2022/10/03 01:39:27;;;;;;;6.95;0.90;;;12.00;99.90;;;;;;4995290;28;20125;-66
2022/10/03 01:41:59;;;;;;;8.05;0.80;;;12.10;99.90;;;;;;4995952;28;20470;-66
2022/10/03 01:44:43;;;;;;;7.65;0.85;;;12.20;99.90;;;;;;4995894;28;20085;-66
2022/10/03 01:47:21;;;;;;;11.90;1.00;;;12.20;99.90;;;;;;4994781;28;20414;-66
2022/10/03 01:49:55;;;;;;;7.88;0.70;;;12.00;99.90;;;;;;4995554;28;20434;-66
2022/10/03 01:52:38;;;;;;;7.15;1.10;;;12.00;99.90;;;;;;4978454;28;20058;-66
2022/10/03 01:55:10;;;;;;;6.65;1.10;;;12.20;99.90;;;;;;4995499;28;20477;-66
2022/10/03 01:57:43;;;;;;;5.72;0.70;;;12.00;99.90;;;;;;4995223;28;20050;-66
2022/10/03 02:00:19;;;;;;;5.07;0.77;;;12.20;99.90;;;;;;4995399;28;20062;-66
2022/10/03 02:03:08;;;;;;;7.35;1.00;;;11.90;99.90;;;;;;4995344;28;20478;-66
2022/10/03 02:05:40;;;;;;;5.53;0.80;;;12.00;99.90;;;;;;4984726;28;20141;-66
2022/10/03 02:08:43;;;;;;;8.32;0.90;;;12.00;99.90;;;;;;4994987;28;20050;-66
2022/10/03 02:11:21;;;;;;;5.10;0.80;;;12.00;99.90;;;;;;4995164;28;20046;-66
2022/10/03 02:14:17;;;;;;;8.30;1.45;;;12.00;99.90;;;;;;4994219;28;20454;-66
2022/10/03 02:16:44;;;;;;;8.80;0.90;;;12.00;99.90;;;;;;4980690;28;20458;-66
2022/10/03 02:19:23;;;;;;;5.85;0.70;;;12.00;99.90;;;;;;4995023;28;20122;-66
2022/10/03 02:21:54;;;;;;;6.93;0.82;;;11.90;99.90;;;;;;4994442;28;20058;-67
2022/10/03 02:24:50;;;;;;;8.18;1.00;;;12.00;99.90;;;;;;4994821;28;20053;-66
2022/10/03 02:27:30;;;;;;;4.80;0.82;;;11.90;99.90;;;;;;4994935;28;20137;-66
2022/10/03 02:30:41;;;;;;;8.20;1.08;;;12.10;99.90;;;;;;4994733;28;20046;-66
2022/10/03 02:33:44;;;;;;;5.15;0.70;;;11.90;99.90;;;;;;4994490;28;20403;-66
2022/10/03 02:37:04;;;;;;;5.20;0.80;;;11.90;99.90;;;;;;4994695;28;20050;-66
2022/10/03 02:39:44;;;;;;;4.13;0.80;;;11.90;99.90;;;;;;4915552;29;20135;-66
2022/10/03 02:42:30;;;;;;;7.45;0.80;;;11.90;99.90;;;;;;4966899;28;20510;-66
2022/10/03 02:45:29;;;;;;;3.65;0.70;;;11.90;99.90;;;;;;4994734;28;20054;-66
2022/10/03 02:48:07;;;;;;;4.63;0.60;;;11.90;99.90;;;;;;4994511;28;20082;-66
2022/10/03 02:50:41;;;;;;;7.20;0.70;;;11.90;99.90;;;;;;4993594;28;20050;-66
2022/10/03 02:53:43;;;;;;;5.38;0.85;;;12.10;99.90;;;;;;4994388;28;20093;-66
2022/10/03 02:56:30;;;;;;;3.95;0.80;;;11.90;99.90;;;;;;4994394;28;20096;-66
2022/10/03 02:59:07;;;;;;;3.20;0.70;;;11.90;99.90;;;;;;4994346;28;20117;-66
2022/10/03 03:01:52;;;;;;;7.63;0.88;;;11.90;99.90;;;;;;4994275;28;20086;-66
2022/10/03 03:04:36;;;;;;;5.28;0.75;;;12.00;99.90;;;;;;4994059;28;20406;-66
2022/10/03 03:07:37;;;;;;;5.03;0.73;;;11.90;99.90;;;;;;4993413;28;20050;-66
2022/10/03 03:10:30;;;;;;;7.38;0.75;;;11.80;99.90;;;;;;4994066;28;20511;-66
2022/10/03 03:13:26;;;;;;;9.38;0.80;;;11.80;99.90;;;;;;4994301;28;20124;-66
2022/10/03 03:16:22;;;;;;;6.78;1.25;;;11.90;99.90;;;;;;4993634;28;20101;-66
2022/10/03 03:19:06;;;;;;;4.43;0.80;;;11.80;99.90;;;;;;4993967;28;20046;-66
2022/10/03 03:21:59;;;;;;;8.63;0.73;;;11.70;99.90;;;;;;4994089;28;20104;-66
2022/10/03 03:24:40;;;;;;;3.63;0.85;;;11.80;99.90;;;;;;4994150;28;20053;-66
2022/10/03 03:27:57;;;;;;;7.03;1.13;;;11.70;99.90;;;;;;4976688;28;20149;-66
2022/10/03 03:30:46;;;;;;;5.22;0.80;;;11.70;99.90;;;;;;4989869;28;20094;-66
2022/10/03 03:33:30;;;;;;;5.50;0.80;;;11.60;99.90;;;;;;4991824;28;20050;-66
2022/10/03 03:36:24;;;;;;;10.15;0.88;;;11.60;99.90;;;;;;4994115;28;20050;-66
2022/10/03 03:39:41;;;;;;;3.88;1.23;;;11.70;99.90;;;;;;4993916;28;20080;-66
2022/10/03 03:42:29;;;;;;;4.10;0.80;;;11.60;99.90;;;;;;4980612;28;20054;-66
2022/10/03 03:45:42;;;;;;;7.18;0.77;;;11.50;99.90;;;;;;4992665;28;20398;-66
2022/10/03 03:48:39;;;;;;;6.22;0.73;;;11.50;99.90;;;;;;4914635;29;20060;-66
2022/10/03 03:51:17;;;;;;;10.43;0.70;;;11.50;99.90;;;;;;4899288;29;20056;-66
2022/10/03 03:53:56;;;;;;;5.82;0.85;;;11.50;99.90;;;;;;4975702;28;20529;-66
2022/10/03 03:56:45;;;;;;;6.20;1.13;;;11.50;99.90;;;;;;4993516;28;20578;-66
2022/10/03 03:59:49;;;;;;;7.47;0.93;;;11.50;99.90;;;;;;4993742;28;20046;-66
2022/10/03 04:02:43;;;;;;;3.85;0.70;;;11.50;99.90;;;;;;4978457;28;20069;-66
2022/10/03 04:05:23;;;;;;;5.63;0.73;;;11.40;99.90;;;;;;4998229;28;20057;-66
2022/10/03 04:08:27;;;;;;;4.32;0.60;;;11.40;99.90;;;;;;4997451;28;20081;-66
2022/10/03 04:11:17;;;;;;;6.05;0.70;;;11.30;99.90;;;;;;4997244;28;20483;-66
2022/10/03 04:14:04;;;;;;;6.03;0.80;;;11.30;99.90;;;;;;4997479;28;20057;-66
2022/10/03 04:19:47;;;;;;;6.03;0.50;;;11.20;99.90;;;;;;4997318;28;20134;-66
2022/10/03 04:22:18;;;;;;;8.70;1.00;;;11.30;99.90;;;;;;4997209;28;20050;-66
2022/10/03 04:25:14;;;;;;;8.07;0.70;;;11.20;99.90;;;;;;4997443;28;20364;-66
2022/10/03 04:28:02;;;;;;;3.28;0.77;;;11.20;99.90;;;;;;4996976;28;20050;-66
2022/10/03 04:30:58;;;;;;;4.70;0.90;;;11.30;99.90;;;;;;4997869;28;20081;-66
2022/10/03 04:33:31;;;;;;;8.15;0.90;;;11.30;99.90;;;;;;4966551;28;20065;-66
2022/10/03 04:36:15;;;;;;;;;;;11.50;99.90;;;;;;4997107;28;20061;-66
2022/10/03 04:38:53;;;;;;;4.88;0.88;;;11.30;99.90;;;;;;4997566;28;20294;-66
2022/10/03 04:41:44;;;;;;;5.70;0.80;;;11.40;99.90;;;;;;4996868;28;20132;-66
2022/10/03 04:44:47;;;;;;;5.22;0.88;;;11.40;99.90;;;;;;4996598;28;20101;-67
2022/10/03 04:47:22;;;;;;;8.40;0.98;;;11.50;99.90;;;;;;4996173;28;20508;-66
2022/10/03 04:49:57;;;;;;;5.80;0.90;;;11.60;99.90;;;;;;4997068;28;20053;-66
2022/10/03 04:53:10;;;;;;;7.95;0.95;;;11.50;99.90;;;;;;4995589;28;20137;-66
2022/10/03 04:55:41;;;;;;;6.93;1.10;;;11.60;99.90;;;;;;4992865;28;20442;-66
2022/10/03 04:58:37;;;;;;;5.03;1.38;;;11.50;99.90;;;;;;4995547;28;20066;-66
2022/10/03 05:01:23;;;;;;;4.55;0.90;;;11.60;99.90;;;;;;4995393;28;20066;-66
2022/10/03 05:04:28;;;;;;;9.50;1.10;;;11.60;99.90;;;;;;4996780;28;20050;-66
2022/10/03 05:07:13;;;;;;;6.45;1.10;;;11.60;99.90;;;;;;4979404;28;20062;-66
2022/10/03 05:09:51;;;;;;;7.28;0.93;;;11.80;99.90;;;;;;4996408;28;20039;-66
2022/10/03 05:12:49;;;;;;;6.22;0.95;;;11.40;99.90;;;;;;4996450;28;20050;-67
2022/10/03 05:15:49;;;;;;;4.10;0.70;;;11.60;99.90;;;;;;4996143;28;20052;-66
2022/10/03 05:18:23;;;;;;;6.68;0.90;;;11.50;99.90;;;;;;4996508;28;20407;-66
2022/10/03 05:21:04;;;;;;;5.30;0.70;;;11.60;99.90;;;;;;4996587;28;20128;-66
2022/10/03 05:24:04;;;;;;;7.38;1.00;;;11.50;99.90;;;;;;4995449;28;20082;-66
2022/10/03 05:26:40;;;;;;;4.20;1.00;;;11.50;99.90;;;;;;4996239;28;20050;-66
2022/10/03 05:29:14;;;;;;;5.03;1.00;;;11.30;99.90;;;;;;4994737;28;20565;-66
2022/10/03 05:31:59;;;;;;;7.40;0.90;;;11.40;99.90;;;;;;4994850;28;20513;-66
2022/10/03 05:34:59;;;;;;;7.78;1.10;;;11.40;99.90;;;;;;4995809;28;20479;-66
2022/10/03 05:37:37;;;;;;;5.72;1.13;;;11.40;99.90;;;;;;4943411;28;20113;-66
2022/10/03 05:40:19;;;;;;;4.45;0.80;;;11.50;99.90;;;;;;4996012;28;20560;-66
2022/10/03 05:42:54;;;;;;;2.92;0.90;;;11.40;99.90;;;;;;4995746;28;20076;-67
2022/10/03 05:45:38;;;;;;;5.75;0.68;;;11.40;99.90;;;;;;4995749;28;20142;-66
2022/10/03 05:48:27;;;;;;;5.75;0.70;;;11.30;99.90;;;;;;4995332;28;20050;-67
2022/10/03 05:51:38;;;;;;;4.32;0.90;;;11.30;99.90;;;;;;4995583;28;20078;-67
2022/10/03 05:54:06;;;;;;;5.45;0.80;;;11.20;99.90;;;;;;4994694;28;20420;-66
2022/10/03 05:56:43;;;;;;;4.32;0.70;;;11.20;99.90;;;;;;4995454;28;20046;-66
2022/10/03 05:59:19;;;;;;;4.70;0.85;;;11.20;99.90;;;;;;4995344;28;20053;-66
2022/10/03 06:01:50;;;;;;;5.90;0.70;;;11.40;99.90;;;;;;4995494;28;20057;-66
2022/10/03 06:04:34;;;;;;;4.35;0.60;;;11.20;99.90;;;;;;4995375;28;20572;-66
2022/10/03 06:07:26;;;;;;;4.97;0.88;;;11.20;99.90;;;;;;4995694;28;20050;-66
2022/10/03 06:10:02;;;;;;;6.63;0.70;;;11.20;99.90;;;;;;4995048;28;20086;-66
2022/10/03 06:12:36;;;;;;;4.57;0.70;;;11.40;99.90;;;;;;4994565;28;20093;-66
2022/10/03 06:15:38;;;;;;;7.05;0.80;;;11.10;99.90;;;;;;4995174;28;20054;-66
2022/10/03 06:18:52;;;;;;;6.63;0.77;;;11.20;99.90;;;;;;4994467;28;20058;-66
2022/10/03 06:21:55;;;;;;;5.15;0.70;;;11.20;99.90;;;;;;4986190;28;20054;-66
2022/10/03 06:24:51;;;;;;;3.27;0.70;;;11.20;99.90;;;;;;4994614;28;20058;-66
2022/10/03 06:27:37;;;;;;;5.22;0.70;;;11.30;99.90;;;;;;4995508;28;20450;-66
2022/10/03 06:30:11;;;;;;;6.28;0.60;;;11.30;99.90;;;;;;4954797;28;20057;-66
2022/10/03 06:33:04;;;;;;;6.80;1.50;;;11.40;99.90;;;;;;4994657;28;20046;-66
2022/10/03 06:35:53;;;;;;;4.90;1.55;;;11.50;99.90;;;;;;4995198;28;20053;-66
2022/10/03 06:38:56;;;;;;;9.38;3.03;;;11.40;99.90;;;;;;4994520;28;20096;-66
2022/10/03 06:41:41;;;;;;;6.45;1.02;;;11.40;99.90;;;;;;4994884;28;20113;-66
2022/10/03 06:44:31;;;;;;;3.83;0.90;;;11.60;99.90;;;;;;4994755;28;20117;-66
2022/10/03 06:47:22;;;;;;;5.18;0.80;;;11.50;99.90;;;;;;4994015;28;20048;-66
2022/10/03 06:50:20;;;;;;;7.93;1.20;;;11.70;99.90;;;;;;4944654;28;20060;-66
2022/10/03 06:52:58;;;;;;;6.90;1.30;;;11.60;99.90;;;;;;4994592;28;20042;-66
2022/10/03 06:55:46;;;;;;;9.07;2.00;;;11.50;99.90;;;;;;4994385;28;20054;-66
2022/10/03 06:58:26;;;;;;;6.22;1.90;;;11.50;99.90;;;;;;4993649;28;20403;-66
2022/10/03 07:01:10;;;;;;;5.47;1.10;;;11.60;99.90;;;;;;4994395;28;20080;-66
2022/10/03 07:04:15;;;;;;;4.15;1.00;;;11.60;99.90;;;;;;4993285;28;20514;-66
2022/10/03 07:06:51;;;;;;;4.35;0.70;;;11.60;99.90;;;;;;4994939;28;20043;-66
2022/10/03 07:09:35;;;;;;;8.15;1.08;;;11.60;99.90;;;;;;4994337;28;20042;-66
2022/10/03 07:12:26;;;;;;;5.38;1.20;;;11.70;99.90;;;;;;4994174;28;20050;-66
2022/10/03 07:15:25;;;;;;;6.63;0.80;;;11.70;99.90;;;;;;4994294;28;20075;-66
2022/10/03 07:18:21;;;;;;;6.60;0.75;;;11.80;99.90;;;;;;4993712;28;20434;-66
2022/10/03 07:21:09;;;;;;;6.47;0.70;;;11.90;99.90;;;;;;4994022;28;20042;-67
2022/10/03 07:23:46;;;;;;;4.97;0.77;;;12.00;99.90;;;;;;4994188;28;20054;-67
2022/10/03 07:26:31;;;;;;;6.05;0.70;;;11.90;99.90;;;;;;4994151;28;20050;-67
2022/10/03 07:29:21;;;;;;;6.32;0.80;;;12.10;99.90;;;;;;4992802;28;20046;-69
2022/10/03 07:31:58;;;;;;;3.65;0.82;;;12.20;99.90;;;;;;4993947;28;20046;-66
2022/10/03 07:34:42;;;;;;;6.72;1.10;;;12.20;99.90;;;;;;4993165;28;20110;-67
2022/10/03 07:40:51;;;;;;;4.22;0.70;;;12.60;99.90;;;;;;5000458;28;20104;-66
2022/10/03 07:43:19;;;;;;;3.45;0.60;;;12.50;99.90;;;;;;5000418;28;20129;-66
2022/10/03 07:46:11;;;;;;;4.10;0.88;;;12.40;99.90;;;;;;5000020;28;20050;-66
2022/10/03 07:48:37;;;;;;;4.63;0.85;;;12.60;99.90;;;;;;5000378;28;20068;-66
2022/10/03 07:51:18;;;;;;;7.60;0.82;;;12.70;99.90;;;;;;5000301;28;20049;-66
2022/10/03 07:54:23;;;;;;;6.43;1.23;;;12.90;99.90;;;;;;5000281;28;20072;-66
2022/10/03 07:56:48;;;;;;;4.35;1.35;;;13.10;99.90;;;;;;5000439;28;20054;-67
2022/10/03 07:59:40;;;;;;;6.20;0.70;;;12.80;99.90;;;;;;4999968;28;20406;-66
2022/10/03 08:02:27;;;;;;;8.25;0.80;;;12.90;99.90;;;;;;5000234;28;20046;-66
2022/10/03 08:05:17;;;;;;;5.57;0.65;;;12.90;99.90;;;;;;5000569;28;20053;-67
2022/10/03 08:07:55;;;;;;;3.75;0.90;;;12.90;99.90;;;;;;5000439;28;20054;-66
2022/10/03 08:10:47;;;;;;;6.13;0.60;;;12.90;99.90;;;;;;5000274;28;20050;-66
2022/10/03 08:13:21;;;;;;;5.75;0.70;;;13.00;99.90;;;;;;5000326;28;20109;-67
2022/10/03 08:16:21;;;;;;;3.65;0.88;;;13.10;99.90;;;;;;5000052;28;20046;-66
2022/10/03 08:19:26;;;;;;;5.25;1.38;;;13.10;99.90;;;;;;4999993;28;20042;-65
2022/10/03 08:22:09;;;;;;;9.50;1.05;;;13.20;99.90;;;;;;4998867;28;20050;-67
2022/10/03 08:25:00;;;;;;;5.05;0.70;;;13.30;99.90;;;;;;4999972;28;20057;-66
2022/10/03 08:27:50;;;;;;;6.00;0.90;;;13.40;99.90;;;;;;4999714;28;20080;-67
2022/10/03 08:30:41;;;;;;;4.07;0.60;;;13.50;99.90;;;;;;4999985;28;20136;-67
2022/10/03 08:33:44;;;;;;;6.93;0.80;;;13.50;99.90;;;;;;4999866;28;20085;-66
2022/10/03 08:36:28;;;;;;;3.33;0.50;;;13.50;99.90;;;;;;5000106;28;20046;-66
2022/10/03 08:39:10;;;;;;;2.15;0.60;;;13.60;99.90;;;;;;4999771;28;20129;-67
2022/10/03 08:41:54;;;;;;;5.07;0.60;;;13.80;99.90;;;;;;4998828;28;20050;-67
2022/10/03 08:44:58;;;;;;;4.60;1.65;;;13.60;99.90;;;;;;5000085;28;20085;-67
2022/10/03 08:47:34;;;;;;;4.25;0.70;;;13.60;99.90;;;;;;4998934;28;20046;-67
2022/10/03 08:50:41;;;;;;;8.77;0.68;;;13.90;99.90;;;;;;4996725;28;20042;-66
2022/10/03 08:53:47;;;;;;;4.70;0.70;;;14.00;99.90;;;;;;4917690;29;20052;-67
2022/10/03 08:56:25;;;;;;;2.63;0.50;;;14.10;99.90;;;;;;4991710;28;20066;-66
2022/10/03 08:59:16;;;;;;;4.65;0.70;;;14.30;99.90;;;;;;4996756;28;20050;-66
2022/10/03 09:01:56;;;;;;;4.03;0.60;;;14.10;99.90;;;;;;4996703;28;20129;-66
2022/10/03 09:04:31;;;;;;;2.45;0.50;;;14.20;99.90;;;;;;4989456;28;20047;-67
2022/10/03 09:07:55;;;;;;;3.60;0.60;;;14.20;99.90;;;;;;4976975;28;20043;-68
2022/10/03 09:10:31;;;;;;;8.70;0.70;;;14.30;99.90;;;;;;4873285;29;20096;-66
2022/10/03 09:13:38;;;;;;;5.32;0.70;;;14.40;99.90;;;;;;4898307;29;20057;-66
2022/10/03 09:16:41;;;;;;;6.38;0.60;;;14.30;99.90;;;;;;4926947;28;20058;-66
2022/10/03 09:19:19;;;;;;;2.72;0.40;;;14.40;99.90;;;;;;4977098;28;20042;-65
2022/10/03 09:22:12;;;;;;;5.18;0.50;;;14.50;99.90;;;;;;4976531;28;20133;-65
2022/10/03 09:24:38;;;;;;;;;;;14.40;99.90;;;;;;4977234;28;20057;-65
2022/10/03 09:27:42;;;;;;;4.10;0.50;;;14.50;99.90;;;;;;4991998;28;20024;-66
2022/10/03 09:30:41;;;;;;;8.05;0.60;;;14.60;99.90;;;;;;4944609;28;20134;-67
2022/10/03 09:33:55;;;;;;;3.22;0.57;;;14.60;99.90;;;;;;4987165;28;20104;-66
2022/10/03 09:36:41;;;;;;;;;;;14.70;99.90;;;;;;4927150;28;20509;-66
2022/10/03 09:39:33;;;;;;;6.15;0.70;;;14.70;99.90;;;;;;4946156;28;19922;-66
2022/10/03 09:42:21;;;;;;;4.72;0.60;;;14.80;99.90;;;;;;4986771;28;20042;-66
2022/10/03 09:44:52;;;;;;;4.03;0.55;;;14.70;99.90;;;;;;4986483;28;20042;-66
2022/10/03 09:47:39;;;;;;;6.18;0.65;;;14.70;99.90;;;;;;4985993;28;20039;-66
2022/10/03 09:50:24;;;;;;;2.85;0.50;;;14.80;99.90;;;;;;4985815;28;20074;-66
2022/10/03 09:53:17;;;;;;;2.42;0.90;;;14.80;99.90;;;;;;4983493;28;20908;-67
2022/10/03 09:55:56;;;;;;;3.85;0.70;;;14.90;99.90;;;;;;4985319;28;20082;-66
2022/10/03 09:58:44;;;;;;;5.05;0.60;;;15.20;99.90;;;;;;4982960;28;20051;-66
2022/10/03 10:01:36;;;;;;;4.93;0.60;;;15.00;99.90;;;;;;4986194;28;20046;-66
2022/10/03 10:04:20;;;;;;;4.28;0.40;;;15.00;99.90;;;;;;4986266;28;20719;-66
2022/10/03 10:06:54;;;;;;;4.22;0.70;;;15.10;99.90;;;;;;4984260;28;20101;-66
2022/10/03 10:09:43;;;;;;;4.38;0.50;;;15.10;99.90;;;;;;4984464;28;20069;-65
2022/10/03 10:12:36;;;;;;;2.38;0.55;;;15.00;99.90;;;;;;4986342;28;20054;-66
2022/10/03 10:15:44;;;;;;;4.85;0.80;;;15.10;99.90;;;;;;5009107;28;20120;-66
2022/10/03 10:18:47;;;;;;;3.80;0.80;;;15.30;99.90;;;;;;4955237;28;20046;-65
2022/10/03 10:21:49;;;;;;;4.63;0.75;;;15.10;99.90;;;;;;4986149;28;20046;-66
2022/10/03 10:24:45;;;;;;;5.85;0.52;;;15.30;99.90;;;;;;5007996;28;20315;-65
2022/10/03 10:27:29;;;;;;;4.35;0.38;;;15.40;99.90;;;;;;4986038;28;20044;-66
2022/10/03 10:30:19;;;;;;;3.70;0.50;;;15.30;99.90;;;;;;4985038;28;20130;-66
2022/10/03 10:33:04;;;;;;;3.92;0.45;;;15.40;99.90;;;;;;4986114;28;20136;-66
2022/10/03 10:35:51;;;;;;;5.22;0.55;;;15.50;99.90;;;;;;4985603;28;20046;-66
2022/10/03 10:38:36;;;;;;;2.38;0.50;;;15.70;99.90;;;;;;4986572;28;20046;-67
2022/10/03 10:41:20;;;;;;;2.88;0.50;;;15.50;99.90;;;;;;4980527;28;20057;-66
2022/10/03 10:44:39;;;;;;;6.07;0.60;;;15.60;99.90;;;;;;4990039;28;20046;-66
2022/10/03 10:47:31;;;;;;;2.72;0.30;;;15.60;99.90;;;;;;4984890;28;20042;-67
2022/10/03 10:50:28;;;;;;;4.80;0.40;;;15.70;99.90;;;;;;4988225;28;20471;-66
2022/10/03 10:53:36;;;;;;;2.35;0.40;;;15.80;99.90;;;;;;4984302;28;20096;-65
2022/10/03 10:56:21;;;;;;;2.85;0.40;;;15.80;99.90;;;;;;5005716;28;20446;-66
2022/10/03 10:59:41;;;;;;;4.18;0.30;;;16.00;99.90;;;;;;4985337;28;20096;-66
2022/10/03 11:02:44;;;;;;;2.97;0.40;;;15.90;99.90;;;;;;4984962;28;20053;-67
2022/10/03 11:05:41;;;;;;;1.98;0.40;;;15.90;99.90;;;;;;4985074;28;20398;-65
2022/10/03 11:08:18;;;;;;;2.33;0.30;;;16.10;99.90;;;;;;4985196;28;20117;-65
2022/10/03 11:11:08;;;;;;;2.75;0.50;;;16.10;99.90;;;;;;4983742;28;20086;-66
2022/10/03 11:13:55;;;;;;;2.45;0.30;;;16.00;99.90;;;;;;4985113;28;20126;-66
2022/10/03 11:16:21;;;;;;;4.85;0.50;;;16.00;99.90;;;;;;4984470;28;20046;-66
2022/10/03 11:19:20;;;;;;;3.95;0.47;;;15.90;99.90;;;;;;4984570;28;20449;-65
2022/10/03 11:22:14;;;;;;;5.78;0.40;;;16.10;99.90;;;;;;4984181;28;20133;-66
2022/10/03 11:25:08;;;;;;;4.07;0.40;;;16.10;99.90;;;;;;4985224;28;20101;-66
2022/10/03 11:27:56;;;;;;;3.13;0.30;;;16.00;99.90;;;;;;4985128;28;20125;-66
2022/10/03 11:30:38;;;;;;;2.38;0.30;;;16.00;99.90;;;;;;4984913;28;20051;-66
2022/10/03 11:33:41;;;;;;;2.70;0.30;;;16.10;99.90;;;;;;4980060;28;20074;-66
2022/10/03 11:36:20;;;;;;;3.38;0.32;;;16.10;99.90;;;;;;4984172;28;20486;-66
2022/10/03 11:39:05;;;;;;;2.03;0.32;;;16.30;99.90;;;;;;4984450;28;20062;-66
2022/10/03 11:41:46;;;;;;;3.10;0.30;;;16.10;99.90;;;;;;4984105;28;20066;-66
2022/10/03 11:44:29;;;;;;;1.05;0.30;;;16.10;99.90;;;;;;4983142;28;20050;-66
2022/10/03 11:47:46;;;;;;;4.47;0.65;;;16.20;99.90;;;;;;4982759;28;20077;-66
2022/10/03 11:50:34;;;;;;;2.05;0.30;;;16.30;99.90;;;;;;4940846;29;20040;-67
2022/10/03 11:53:22;;;;;;;3.00;0.40;;;16.30;99.90;;;;;;4979259;28;20196;-67
2022/10/03 11:56:07;;;;;;;5.05;0.57;;;16.40;99.90;;;;;;4983994;28;20368;-67
2022/10/03 11:58:53;;;;;;;2.95;0.30;;;16.30;99.90;;;;;;4983244;28;20392;-66
2022/10/03 12:01:52;;;;;;;1.92;0.30;;;16.60;99.90;;;;;;4983527;28;20058;-67
2022/10/03 12:04:23;;;;;;;3.60;0.30;;;16.50;99.90;;;;;;4983825;28;20062;-67
2022/10/03 12:10:03;;;;;;;2.38;0.30;;;16.50;99.90;;;;;;4984020;28;20035;-66
2022/10/03 12:12:32;;;;;;;1.40;0.40;;;16.50;99.90;;;;;;4983859;28;20124;-65
2022/10/03 12:15:39;;;;;;;1.85;0.30;;;16.60;99.90;;;;;;4981073;28;20129;-67
2022/10/03 12:18:41;;;;;;;3.28;0.32;;;16.60;99.90;;;;;;4981861;28;20042;-66
2022/10/03 12:21:11;;;;;;;2.22;0.40;;;16.60;99.90;;;;;;4983683;28;20054;-67
2022/10/03 12:24:00;;;;;;;4.72;0.32;;;16.70;99.90;;;;;;4986184;28;20129;-67
2022/10/03 12:26:42;;;;;;;3.92;0.30;;;16.60;99.90;;;;;;4987738;28;20104;-67
2022/10/03 12:29:13;;;;;;;2.50;0.30;;;16.60;99.90;;;;;;4986646;28;20049;-67
2022/10/03 12:32:04;;;;;;;2.78;0.50;;;16.80;99.90;;;;;;4987398;28;20046;-67
2022/10/03 12:34:49;;;;;;;2.17;0.40;;;16.60;99.90;;;;;;4952335;28;20055;-67
2022/10/03 12:37:37;;;;;;;3.67;0.40;;;16.80;99.90;;;;;;4987501;28;20049;-67
2022/10/03 12:40:06;;;;;;;1.55;0.30;;;16.80;99.90;;;;;;4995028;28;20380;-68
2022/10/03 12:42:47;;;;;;;2.70;0.50;;;16.70;99.90;;;;;;4986324;28;20112;-67
2022/10/03 12:45:19;;;;;;;1.65;0.30;;;16.80;99.90;;;;;;4987381;28;20483;-66
2022/10/03 12:48:03;;;;;;;1.73;0.30;;;16.50;99.90;;;;;;4985803;28;20042;-66
2022/10/03 12:51:05;;;;;;;4.88;0.50;;;16.60;99.90;;;;;;5009126;28;20482;-67
2022/10/03 12:54:04;;;;;;;1.98;0.40;;;16.70;99.90;;;;;;4986263;28;20046;-67
2022/10/03 12:56:41;;;;;;;2.00;0.40;;;16.40;99.90;;;;;;4987014;28;20129;-67
2022/10/03 12:59:39;;;;;;;1.92;0.20;;;16.40;99.90;;;;;;4986982;28;20081;-67
2022/10/03 13:02:20;;;;;;;2.83;0.52;;;16.50;99.90;;;;;;4987633;28;20049;-67
2022/10/03 13:04:59;;;;;;;2.75;0.65;;;16.40;99.90;;;;;;4986640;28;20052;-68
2022/10/03 13:07:30;;;;;;;2.97;0.28;;;16.40;99.90;;;;;;4986869;28;20052;-66
2022/10/03 13:10:03;;;;;;;3.80;0.40;;;16.40;99.90;;;;;;4985184;28;20102;-66
2022/10/03 13:12:38;;;;;;;2.13;0.30;;;16.30;99.90;;;;;;4986831;28;20050;-67
2022/10/03 13:15:43;;;;;;;2.63;0.57;;;16.40;99.90;;;;;;4986618;28;20482;-67
2022/10/03 13:18:44;;;;;;;4.47;0.38;;;16.40;99.90;;;;;;4986281;28;20146;-67
2022/10/03 13:21:16;;;;;;;1.92;0.40;;;16.40;99.90;;;;;;4986594;28;20149;-67
2022/10/03 13:23:48;;;;;;;2.05;0.20;;;16.40;99.90;;;;;;4986098;28;20050;-67
2022/10/03 13:26:27;;;;;;;1.98;0.30;;;16.40;99.90;;;;;;4986159;28;20053;-67
2022/10/03 13:29:01;;;;;;;3.55;0.50;;;16.30;99.90;;;;;;4986333;28;20042;-67
2022/10/03 13:31:32;;;;;;;2.40;0.40;;;16.40;99.90;;;;;;4986343;28;20101;-67
2022/10/03 13:34:20;;;;;;;3.33;0.50;;;16.50;99.90;;;;;;4985483;28;20403;-66
2022/10/03 13:37:13;;;;;;;1.38;0.30;;;16.50;99.90;;;;;;4986524;28;20391;-66
2022/10/03 13:39:54;;;;;;;2.65;0.43;;;16.70;99.90;;;;;;4985996;28;20419;-68
2022/10/03 13:42:43;;;;;;;3.10;0.40;;;16.50;99.90;;;;;;4984134;28;20086;-67
2022/10/03 13:45:17;;;;;;;3.38;0.40;;;16.70;99.90;;;;;;4986062;28;20125;-67
2022/10/03 13:47:56;;;;;;;3.28;0.45;;;16.50;99.90;;;;;;4985515;28;20053;-67
2022/10/03 13:50:39;;;;;;;1.73;0.50;;;16.70;99.90;;;;;;4985785;28;20132;-67
2022/10/03 13:53:28;;;;;;;2.97;0.38;;;16.50;99.90;;;;;;4990908;28;20050;-67
2022/10/03 13:55:56;;;;;;;1.98;0.30;;;16.60;99.90;;;;;;4985911;28;20126;-67
2022/10/03 13:58:32;;;;;;;1.33;0.50;;;16.50;99.90;;;;;;4984852;28;20046;-67
2022/10/03 14:01:10;;;;;;;2.83;0.50;;;16.60;99.90;;;;;;4983880;28;20042;-67
2022/10/03 14:03:47;;;;;;;5.05;0.50;;;16.50;99.90;;;;;;4985755;28;20054;-66
2022/10/03 14:06:35;;;;;;;2.55;0.47;;;16.40;99.90;;;;;;4985795;28;20514;-67
2022/10/03 14:09:15;;;;;;;3.60;0.40;;;16.50;99.90;;;;;;4985357;28;20487;-67
2022/10/03 14:11:59;;;;;;;4.15;0.40;;;16.40;99.90;;;;;;4983370;28;20042;-67
2022/10/03 14:14:37;;;;;;;2.40;0.57;;;16.40;99.90;;;;;;4985556;28;20108;-67
2022/10/03 14:17:13;;;;;;;3.28;0.40;;;16.30;99.90;;;;;;4985059;28;20070;-67
2022/10/03 14:20:17;;;;;;;3.95;0.50;;;16.40;99.90;;;;;;4984325;28;20050;-67
2022/10/03 14:22:42;;;;;;;3.50;0.43;;;16.60;99.90;;;;;;4987367;28;20046;-67
2022/10/03 14:25:21;;;;;;;2.22;0.40;;;16.50;99.90;;;;;;4983808;28;20101;-67
2022/10/03 14:28:09;;;;;;;2.75;0.40;;;16.40;99.90;;;;;;4969290;28;20106;-67
2022/10/03 14:30:55;;;;;;;2.17;0.40;;;16.60;99.90;;;;;;4985158;28;20053;-66
2022/10/03 14:33:46;;;;;;;2.22;0.40;;;16.70;99.90;;;;;;4985505;28;20050;-66
2022/10/03 14:36:32;;;;;;;2.63;0.40;;;16.50;99.90;;;;;;4985607;28;20096;-67
2022/10/03 14:39:21;;;;;;;2.72;0.50;;;16.50;99.90;;;;;;4984947;28;20052;-67
2022/10/03 14:42:17;;;;;;;3.25;0.73;;;16.80;99.90;;;;;;4985124;28;20097;-67